Time;durP1;ratioP1;P1;durP2;ratioP2;P2;SDS_P1;SDS_P2;PMS_P1;PMS_P2;Temp;Humidity;BMP_temperature;BMP_pressure;BME280_temperature;BME280_humidity;BME280_pressure;Samples;Min_cycle;Max_cycle;Signal;HPM_P1;HPM_P2
2021/12/15 05:01:47;;;;;;;32.47;13.87;;;5.90;99.70;;;;;;4930965;29;20181;-62
2021/12/15 05:04:14;;;;;;;34.57;14.57;;;5.90;99.70;;;;;;4933228;29;20205;-62
2021/12/15 05:06:41;;;;;;;41.83;16.60;;;6.00;99.70;;;;;;4934454;29;20487;-63
2021/12/15 05:09:09;;;;;;;37.40;15.73;;;5.90;99.70;;;;;;4933795;29;20469;-63
2021/12/15 05:11:36;;;;;;;34.67;14.87;;;6.00;99.70;;;;;;4932656;29;20453;-64
2021/12/15 05:14:04;;;;;;;41.50;16.37;;;5.90;99.70;;;;;;4914743;29;20450;-60
2021/12/15 05:16:31;;;;;;;36.47;15.17;;;5.90;99.70;;;;;;4914446;29;20473;-63
2021/12/15 05:18:59;;;;;;;38.47;15.60;;;5.90;99.70;;;;;;4914725;29;20465;-61
2021/12/15 05:21:28;;;;;;;39.10;14.97;;;5.90;99.70;;;;;;4914955;29;20856;-62
2021/12/15 05:23:59;;;;;;;38.03;15.87;;;5.80;99.70;;;;;;4917255;29;20470;-63
2021/12/15 05:26:26;;;;;;;38.47;15.17;;;5.80;99.70;;;;;;4933562;29;20487;-63
2021/12/15 05:28:53;;;;;;;37.77;15.77;;;5.80;99.70;;;;;;4933493;29;20485;-62
2021/12/15 05:31:20;;;;;;;39.73;16.03;;;5.90;99.70;;;;;;4932814;29;20434;-61
2021/12/15 05:33:47;;;;;;;37.10;14.83;;;5.90;99.70;;;;;;4925402;29;20448;-62
2021/12/15 05:36:15;;;;;;;37.47;15.10;;;5.90;99.70;;;;;;4924940;29;20446;-61
2021/12/15 05:38:42;;;;;;;35.90;14.40;;;5.80;99.70;;;;;;4919743;29;20469;-62
2021/12/15 05:41:09;;;;;;;37.03;15.17;;;6.00;99.70;;;;;;4933713;29;20456;-61
2021/12/15 05:43:36;;;;;;;40.87;16.20;;;5.90;99.70;;;;;;4917704;29;20486;-63
2021/12/15 05:46:03;;;;;;;35.43;14.47;;;6.00;99.70;;;;;;4933160;29;20489;-65
2021/12/15 05:48:30;;;;;;;39.63;14.10;;;5.90;99.70;;;;;;4921214;29;20479;-65
2021/12/15 05:50:57;;;;;;;41.37;16.60;;;6.00;99.70;;;;;;4921255;29;20454;-62
2021/12/15 05:53:25;;;;;;;36.77;15.43;;;6.00;99.70;;;;;;4914438;29;20664;-62
2021/12/15 05:55:52;;;;;;;41.83;17.10;;;6.00;99.70;;;;;;4928763;29;20441;-62
2021/12/15 05:58:20;;;;;;;42.23;16.47;;;5.90;99.70;;;;;;4932574;29;20525;-62
2021/12/15 06:00:49;;;;;;;41.60;17.17;;;5.90;99.70;;;;;;4923335;29;20451;-62
2021/12/15 06:03:16;;;;;;;37.70;15.23;;;5.90;99.70;;;;;;4923570;29;20465;-63
2021/12/15 06:05:43;;;;;;;42.33;16.97;;;5.80;99.70;;;;;;4926633;29;20489;-61
2021/12/15 06:08:11;;;;;;;38.93;15.70;;;5.90;99.70;;;;;;4924239;29;20479;-61
2021/12/15 06:10:40;;;;;;;38.50;16.07;;;5.90;99.70;;;;;;4930645;29;20456;-59
2021/12/15 06:13:10;;;;;;;38.73;14.90;;;5.90;99.70;;;;;;4937084;29;20445;-63
2021/12/15 06:15:38;;;;;;;39.23;16.47;;;5.80;99.70;;;;;;4931529;29;20970;-63
2021/12/15 06:18:08;;;;;;;37.23;16.30;;;5.80;99.70;;;;;;4936749;29;20455;-60
2021/12/15 06:20:36;;;;;;;38.40;15.67;;;5.90;99.70;;;;;;4920950;29;20486;-62
2021/12/15 06:23:09;;;;;;;39.97;15.60;;;5.90;99.70;;;;;;4918753;29;20482;-62
2021/12/15 06:25:36;;;;;;;39.27;14.80;;;5.80;99.70;;;;;;4935737;29;20701;-62
2021/12/15 06:28:04;;;;;;;38.87;14.20;;;5.90;99.70;;;;;;4936706;29;20944;-63
2021/12/15 06:30:32;;;;;;;35.90;14.40;;;6.00;99.70;;;;;;4936702;29;20813;-64
2021/12/15 06:32:59;;;;;;;38.97;16.60;;;5.90;99.70;;;;;;4936498;29;20456;-63
2021/12/15 06:35:27;;;;;;;42.30;16.80;;;6.00;99.70;;;;;;4936148;29;20456;-63
2021/12/15 06:37:53;;;;;;;36.00;15.07;;;5.90;99.70;;;;;;4936466;29;20966;-63
2021/12/15 06:40:20;;;;;;;43.10;16.20;;;6.00;99.70;;;;;;4936186;29;20461;-63
2021/12/15 06:42:47;;;;;;;36.47;16.60;;;6.00;99.70;;;;;;4936462;29;20452;-63
2021/12/15 06:45:20;;;;;;;36.60;16.60;;;6.00;99.70;;;;;;4935556;29;20453;-64
2021/12/15 06:58:50;;;;;;;31.70;13.60;;;6.00;99.70;;;;;;4936155;29;20444;-64
2021/12/15 07:01:18;;;;;;;35.07;13.83;;;6.00;99.70;;;;;;4936023;29;20447;-64
2021/12/15 07:03:45;;;;;;;30.70;12.80;;;6.00;99.70;;;;;;4935885;29;20678;-65
2021/12/15 07:06:12;;;;;;;26.33;13.03;;;6.00;99.70;;;;;;4935571;29;20516;-65
2021/12/15 07:08:39;;;;;;;27.47;12.53;;;5.90;99.70;;;;;;4936060;29;20849;-63
2021/12/15 07:11:07;;;;;;;28.47;12.37;;;5.90;99.70;;;;;;4935868;29;20464;-64
2021/12/15 07:13:34;;;;;;;28.27;12.40;;;5.90;99.70;;;;;;4935708;29;20833;-64
2021/12/15 07:16:05;;;;;;;27.77;11.43;;;5.90;99.70;;;;;;4935362;29;20453;-64
2021/12/15 07:18:45;;;;;;;34.47;13.63;;;5.90;99.70;;;;;;4935717;29;20838;-64
2021/12/15 07:21:19;;;;;;;27.63;11.57;;;5.80;99.70;;;;;;4935251;29;20453;-64
2021/12/15 07:23:47;;;;;;;28.90;11.83;;;5.80;99.70;;;;;;4935649;29;20508;-65
2021/12/15 07:26:14;;;;;;;27.43;10.90;;;5.90;99.70;;;;;;4935026;29;20488;-64
2021/12/15 07:28:41;;;;;;;25.20;10.60;;;5.90;99.70;;;;;;4935506;29;20488;-64
2021/12/15 07:31:09;;;;;;;24.00;11.27;;;5.80;99.70;;;;;;4934971;29;20451;-62
2021/12/15 07:33:37;;;;;;;24.60;10.90;;;5.90;99.70;;;;;;4932453;29;20962;-61
2021/12/15 07:36:06;;;;;;;23.90;10.40;;;5.90;99.70;;;;;;4927990;29;20437;-65
2021/12/15 07:38:34;;;;;;;27.50;11.20;;;6.00;99.70;;;;;;4908921;29;20481;-62
2021/12/15 07:41:03;;;;;;;27.20;11.90;;;6.00;99.70;;;;;;4921160;29;21028;-64
2021/12/15 07:43:30;;;;;;;25.50;10.87;;;5.90;99.70;;;;;;4930053;29;20464;-62
2021/12/15 07:46:01;;;;;;;25.10;10.83;;;5.90;99.70;;;;;;4941115;29;20867;-64
2021/12/15 07:48:34;;;;;;;22.70;9.80;;;5.90;99.70;;;;;;4954187;29;20468;-62
2021/12/15 07:51:05;;;;;;;25.10;11.07;;;6.00;99.70;;;;;;4954541;29;20460;-63
2021/12/15 07:53:32;;;;;;;23.87;10.50;;;5.90;99.70;;;;;;4953972;29;20867;-60
2021/12/15 07:55:59;;;;;;;22.37;10.10;;;5.90;99.70;;;;;;4953546;29;20444;-63
2021/12/15 07:58:27;;;;;;;22.47;9.63;;;6.00;99.70;;;;;;4953585;29;20468;-61
2021/12/15 08:00:55;;;;;;;23.97;9.67;;;6.00;99.70;;;;;;4931133;29;20466;-62
2021/12/15 08:03:23;;;;;;;23.40;8.90;;;5.90;99.70;;;;;;4927075;29;20531;-63
2021/12/15 08:05:51;;;;;;;20.40;8.37;;;5.90;99.70;;;;;;4935121;29;20489;-63
2021/12/15 08:08:20;;;;;;;16.00;7.00;;;6.00;99.70;;;;;;4936266;29;20448;-63
2021/12/15 08:10:48;;;;;;;18.67;8.63;;;6.00;99.70;;;;;;4928122;29;20457;-61
2021/12/15 08:13:16;;;;;;;18.73;8.27;;;5.90;99.70;;;;;;4929743;29;20557;-61
2021/12/15 08:15:43;;;;;;;18.40;8.20;;;5.80;99.70;;;;;;4934884;29;20468;-63
2021/12/15 08:18:10;;;;;;;16.10;7.23;;;5.80;99.70;;;;;;4936977;29;20456;-62
2021/12/15 08:20:37;;;;;;;16.97;7.33;;;5.80;99.70;;;;;;4935718;29;20457;-64
2021/12/15 08:23:05;;;;;;;19.30;8.07;;;6.00;99.70;;;;;;4936689;29;20457;-63
2021/12/15 08:25:35;;;;;;;14.07;6.40;;;6.00;99.70;;;;;;4935105;29;20568;-62
2021/12/15 08:28:03;;;;;;;14.57;6.53;;;6.00;99.70;;;;;;4936638;29;20485;-61
2021/12/15 08:30:32;;;;;;;15.53;6.40;;;5.90;99.70;;;;;;4924538;29;20829;-62
2021/12/15 08:33:00;;;;;;;15.67;6.80;;;5.90;99.70;;;;;;4935718;29;20445;-62
2021/12/15 08:35:31;;;;;;;14.03;6.60;;;5.90;99.70;;;;;;4951556;29;20444;-61
2021/12/15 08:37:58;;;;;;;16.03;7.07;;;6.00;99.70;;;;;;4951074;29;20440;-61
2021/12/15 08:40:27;;;;;;;13.47;6.43;;;6.00;99.70;;;;;;4951475;29;20468;-63
2021/12/15 08:42:56;;;;;;;15.50;6.73;;;6.10;99.70;;;;;;4951244;29;20848;-61
2021/12/15 08:45:25;;;;;;;14.40;6.10;;;6.10;99.70;;;;;;4950888;29;20451;-62
2021/12/15 08:47:52;;;;;;;14.43;6.90;;;6.10;99.70;;;;;;4951278;29;20865;-61
2021/12/15 08:50:23;;;;;;;11.90;5.80;;;6.00;99.70;;;;;;4949703;29;20475;-63
2021/12/15 08:52:50;;;;;;;16.63;6.20;;;5.90;99.70;;;;;;4951084;29;20452;-63
2021/12/15 08:55:17;;;;;;;16.50;6.13;;;5.90;99.70;;;;;;4935608;29;20453;-60
2021/12/15 08:57:48;;;;;;;15.40;6.50;;;5.90;99.70;;;;;;4932149;29;20952;-61
2021/12/15 09:00:18;;;;;;;12.37;5.83;;;5.90;99.70;;;;;;4950203;29;20479;-62
2021/12/15 09:02:45;;;;;;;12.33;5.60;;;6.20;99.70;;;;;;4938141;29;20964;-62
2021/12/15 09:05:11;;;;;;;16.33;6.67;;;6.30;99.70;;;;;;4935723;29;20450;-62
2021/12/15 09:07:38;;;;;;;12.87;6.00;;;6.30;99.70;;;;;;4935071;29;20495;-63
2021/12/15 09:10:09;;;;;;;12.93;5.83;;;6.20;99.70;;;;;;4936108;29;20473;-63
2021/12/15 09:12:37;;;;;;;16.87;6.20;;;6.00;99.70;;;;;;4935046;29;20536;-61
2021/12/15 09:15:05;;;;;;;14.10;6.33;;;5.90;99.70;;;;;;4935598;29;20507;-63
2021/12/15 09:17:33;;;;;;;12.87;5.67;;;5.80;99.70;;;;;;4934892;29;20446;-62
2021/12/15 09:20:00;;;;;;;13.70;5.90;;;6.00;99.70;;;;;;4929929;29;20469;-63
2021/12/15 09:22:27;;;;;;;12.83;6.20;;;6.10;99.70;;;;;;4934869;29;20453;-60
2021/12/15 09:24:54;;;;;;;13.30;5.90;;;6.30;99.70;;;;;;4935519;29;20471;-60
2021/12/15 09:27:21;;;;;;;13.10;5.83;;;6.20;99.70;;;;;;4934902;29;20500;-61
2021/12/15 09:29:47;;;;;;;15.40;6.17;;;6.10;99.70;;;;;;4935773;29;20480;-63
2021/12/15 09:32:14;;;;;;;11.77;5.90;;;6.30;99.70;;;;;;4934886;29;20451;-61
2021/12/15 09:34:43;;;;;;;14.97;6.70;;;6.20;99.70;;;;;;4935399;29;20956;-60
2021/12/15 09:37:09;;;;;;;12.63;5.80;;;6.20;99.70;;;;;;4923709;29;20460;-63
2021/12/15 09:39:36;;;;;;;11.83;5.50;;;6.30;99.70;;;;;;4935190;29;20848;-62
2021/12/15 09:42:04;;;;;;;12.80;5.60;;;6.20;99.70;;;;;;4935076;29;20504;-63
2021/12/15 09:44:31;;;;;;;17.60;8.40;;;6.30;99.70;;;;;;4935078;29;20547;-63
2021/12/15 09:47:16;;;;;;;17.70;7.50;;;6.20;99.70;;;;;;4939210;29;20862;-62
2021/12/15 10:03:45;;;;;;;18.63;7.47;;;6.20;99.70;;;;;;4938740;29;20433;-63
2021/12/15 10:06:27;;;;;;;20.33;6.60;;;6.20;99.70;;;;;;4937567;29;20864;-61
2021/12/15 10:11:52;;;;;;;19.63;7.83;;;6.20;99.70;;;;;;4939223;29;21062;-62
2021/12/15 10:17:28;;;;;;;14.57;6.60;;;6.30;99.70;;;;;;4953517;29;20423;-63
2021/12/15 10:20:00;;;;;;;12.27;6.13;;;6.30;99.70;;;;;;4952826;29;20575;-62
2021/12/15 10:22:36;;;;;;;14.23;6.63;;;6.40;99.70;;;;;;4946491;29;20464;-61
2021/12/15 10:25:07;;;;;;;13.23;6.07;;;6.40;99.70;;;;;;4936312;29;20452;-63
2021/12/15 10:27:42;;;;;;;14.50;6.57;;;6.30;99.70;;;;;;4954856;29;20495;-60
2021/12/15 10:30:28;;;;;;;14.57;6.63;;;6.30;99.70;;;;;;4955757;29;20475;-62
2021/12/15 10:33:00;;;;;;;14.40;6.87;;;6.40;99.70;;;;;;5008839;23;20657;-63
2021/12/15 10:35:31;;;;;;;18.03;7.93;;;6.40;99.70;;;;;;4933733;29;20457;-61
2021/12/15 10:38:19;;;;;;;14.40;6.67;;;6.30;99.70;;;;;;4935156;29;20436;-60
2021/12/15 10:40:49;;;;;;;20.60;7.90;;;6.30;99.70;;;;;;4936408;29;20818;-59
2021/12/15 10:43:16;;;;;;;16.87;7.50;;;6.20;99.70;;;;;;4936046;29;20742;-60
2021/12/15 10:45:46;;;;;;;15.57;7.33;;;6.30;99.70;;;;;;4935868;29;20456;-63
2021/12/15 10:48:24;;;;;;;16.73;7.43;;;6.30;99.70;;;;;;4935378;29;20484;-59
2021/12/15 10:50:51;;;;;;;14.33;6.50;;;6.40;99.70;;;;;;4936238;29;20452;-61
2021/12/15 10:53:33;;;;;;;15.10;7.00;;;6.30;99.70;;;;;;4935378;29;20976;-61
2021/12/15 10:56:01;;;;;;;17.70;8.20;;;6.20;99.70;;;;;;4935054;29;20453;-62
2021/12/15 10:58:37;;;;;;;13.90;6.77;;;6.10;99.70;;;;;;4936198;29;20682;-62
2021/12/15 11:01:26;;;;;;;15.43;6.60;;;6.30;99.70;;;;;;4936107;29;20457;-60
2021/12/15 11:03:53;;;;;;;25.30;10.47;;;6.20;99.70;;;;;;4935814;29;20465;-60
2021/12/15 11:06:22;;;;;;;26.67;11.80;;;6.20;99.70;;;;;;4935802;29;20455;-58
2021/12/15 11:09:11;;;;;;;18.47;8.20;;;6.10;99.70;;;;;;4935681;29;20496;-59
2021/12/15 11:11:37;;;;;;;18.03;8.90;;;6.20;99.70;;;;;;4935859;29;20979;-60
2021/12/15 11:14:24;;;;;;;16.03;7.80;;;6.40;99.70;;;;;;4935416;29;20488;-59
2021/12/15 11:17:03;;;;;;;13.57;7.00;;;6.50;99.70;;;;;;4935772;29;20437;-58
2021/12/15 11:19:49;;;;;;;14.80;7.50;;;6.60;99.70;;;;;;4935556;29;20457;-58
2021/12/15 11:22:41;;;;;;;14.87;7.13;;;6.50;99.70;;;;;;4935650;29;20975;-60
2021/12/15 11:25:13;;;;;;;14.20;7.23;;;6.60;99.70;;;;;;4934937;29;20477;-60
2021/12/15 11:27:41;;;;;;;12.80;7.43;;;6.40;99.70;;;;;;4935548;29;20842;-59
2021/12/15 11:30:11;;;;;;;17.30;8.43;;;6.30;99.70;;;;;;4935354;29;20490;-59
2021/12/15 11:32:49;;;;;;;13.33;6.67;;;6.30;99.70;;;;;;4935397;29;20842;-62
2021/12/15 11:35:21;;;;;;;16.20;8.20;;;6.20;99.70;;;;;;4934711;29;20452;-62
2021/12/15 11:37:53;;;;;;;18.60;8.63;;;6.10;99.70;;;;;;4935489;29;20941;-59
2021/12/15 11:40:28;;;;;;;13.27;7.30;;;6.20;99.70;;;;;;4935113;29;20460;-58
2021/12/15 11:42:55;;;;;;;14.03;7.37;;;6.10;99.70;;;;;;4935242;29;20465;-58
2021/12/15 11:45:23;;;;;;;12.70;6.53;;;6.20;99.70;;;;;;4934467;29;20449;-59
2021/12/15 11:47:50;;;;;;;16.17;8.13;;;6.50;99.70;;;;;;4934543;29;20492;-58
2021/12/15 11:50:20;;;;;;;14.63;7.50;;;6.50;99.70;;;;;;4934952;29;20453;-58
2021/12/15 11:52:50;;;;;;;19.70;8.00;;;6.40;99.70;;;;;;4934241;29;20472;-60
2021/12/15 11:55:27;;;;;;;14.70;7.60;;;6.40;99.70;;;;;;4934309;29;20464;-62
2021/12/15 11:57:54;;;;;;;18.20;8.50;;;6.40;99.70;;;;;;4934907;29;20964;-59
2021/12/15 12:00:23;;;;;;;14.50;7.50;;;6.40;99.70;;;;;;4934656;29;20445;-58
2021/12/15 12:02:54;;;;;;;15.07;7.60;;;6.40;99.70;;;;;;4934711;29;20449;-59
2021/12/15 12:05:24;;;;;;;12.37;6.87;;;6.50;99.70;;;;;;4934126;29;20507;-59
2021/12/15 12:07:54;;;;;;;15.50;7.77;;;6.50;99.70;;;;;;4934778;29;20481;-59
2021/12/15 12:10:27;;;;;;;49.53;10.53;;;6.20;99.70;;;;;;4934513;29;20892;-58
2021/12/15 12:13:04;;;;;;;22.90;7.80;;;6.10;99.70;;;;;;4934746;29;20472;-59
2021/12/15 12:15:32;;;;;;;30.13;10.67;;;6.20;99.70;;;;;;4934216;29;20452;-63
2021/12/15 12:18:04;;;;;;;14.13;6.60;;;6.40;99.70;;;;;;4934715;29;20445;-58
2021/12/15 12:20:33;;;;;;;15.50;6.77;;;6.40;99.70;;;;;;4934581;29;20453;-62
2021/12/15 12:23:02;;;;;;;10.93;5.80;;;6.40;99.70;;;;;;4933804;29;20509;-59
2021/12/15 12:25:33;;;;;;;13.90;6.90;;;6.40;99.70;;;;;;4933920;29;20448;-62
2021/12/15 12:28:01;;;;;;;15.80;7.27;;;6.40;99.70;;;;;;4933542;29;20572;-59
2021/12/15 12:30:31;;;;;;;14.20;7.07;;;6.50;99.70;;;;;;4933938;29;20453;-61
2021/12/15 12:32:58;;;;;;;11.63;6.47;;;6.50;99.70;;;;;;4934001;29;20473;-62
2021/12/15 12:35:28;;;;;;;15.47;6.60;;;6.50;99.70;;;;;;4933724;29;20826;-59
2021/12/15 12:37:59;;;;;;;14.70;6.60;;;6.40;99.70;;;;;;4931430;29;20466;-59
2021/12/15 12:40:31;;;;;;;14.77;6.67;;;6.30;99.70;;;;;;4933843;29;20536;-61
2021/12/15 12:42:58;;;;;;;14.80;6.90;;;6.40;99.70;;;;;;4938678;28;21034;-59
2021/12/15 12:45:35;;;;;;;10.90;5.60;;;6.40;99.70;;;;;;4934639;29;20449;-63
2021/12/15 12:48:33;;;;;;;13.50;6.40;;;6.30;99.70;;;;;;4935589;29;20499;-60
2021/12/15 12:57:55;;;;;;;14.00;5.77;;;6.50;99.70;;;;;;4936436;29;20457;-61
2021/12/15 12:59:41;;;;;;;12.00;6.00;;;6.40;99.70;;;;;;4949800;29;20440;-61
2021/12/15 13:02:45;;;;;;;12.10;5.87;;;6.40;99.70;;;;;;4951718;28;20876;-62
2021/12/15 13:05:38;;;;;;;11.47;5.90;;;6.40;99.70;;;;;;4924135;29;20457;-63
2021/12/15 13:08:08;;;;;;;10.73;5.80;;;6.30;99.70;;;;;;4928516;29;20579;-59
2021/12/15 13:11:06;;;;;;;10.53;5.90;;;6.30;99.70;;;;;;4951559;29;20452;-60
2021/12/15 13:13:35;;;;;;;10.30;5.73;;;6.30;99.70;;;;;;4929818;29;20530;-58
2021/12/15 13:16:07;;;;;;;10.37;5.97;;;6.30;99.70;;;;;;4949553;29;20459;-59
2021/12/15 13:18:53;;;;;;;13.13;6.83;;;6.40;99.70;;;;;;4951248;29;20457;-59
2021/12/15 13:21:23;;;;;;;13.90;6.77;;;6.60;99.70;;;;;;4940037;29;21143;-59
2021/12/15 13:23:53;;;;;;;13.37;6.63;;;6.70;99.70;;;;;;4946600;28;20476;-60
2021/12/15 13:29:29;;;;;;;16.00;7.63;;;6.60;99.70;;;;;;4953540;29;20487;-61
2021/12/15 13:31:59;;;;;;;20.57;8.30;;;6.50;99.70;;;;;;4955071;29;20451;-60
2021/12/15 13:34:44;;;;;;;20.90;9.00;;;6.50;99.70;;;;;;4941633;29;20907;-61
2021/12/15 13:37:12;;;;;;;16.03;7.47;;;6.40;99.70;;;;;;4938098;29;20484;-60
2021/12/15 13:39:45;;;;;;;15.37;6.60;;;6.40;99.70;;;;;;4940106;29;20456;-63
2021/12/15 13:42:15;;;;;;;14.60;7.53;;;6.40;99.70;;;;;;4938113;29;20449;-60
2021/12/15 13:44:44;;;;;;;13.00;6.43;;;6.50;99.70;;;;;;4939103;28;20980;-64
2021/12/15 13:47:17;;;;;;;12.53;6.80;;;6.40;99.70;;;;;;4937640;29;20456;-61
2021/12/15 13:49:47;;;;;;;11.47;5.90;;;6.40;99.70;;;;;;4938935;29;20826;-62
2021/12/15 13:52:29;;;;;;;10.20;5.30;;;6.40;99.70;;;;;;4937673;29;20500;-61
2021/12/15 13:55:25;;;;;;;9.67;5.10;;;6.40;99.70;;;;;;4938659;28;20468;-60
2021/12/15 13:58:00;;;;;;;15.90;5.90;;;6.40;99.70;;;;;;4939155;29;20570;-62
2021/12/15 14:00:33;;;;;;;10.90;4.97;;;6.40;99.70;;;;;;4938062;29;20464;-62
2021/12/15 14:03:05;;;;;;;11.00;5.70;;;6.70;99.70;;;;;;4947800;28;20475;-61
2021/12/15 14:05:36;;;;;;;12.30;5.80;;;6.40;99.70;;;;;;4947633;29;20437;-64
2021/12/15 14:08:07;;;;;;;16.50;6.80;;;6.30;99.70;;;;;;4943544;29;20490;-65
2021/12/15 14:10:54;;;;;;;20.90;8.80;;;6.40;99.70;;;;;;4949138;29;20498;-66
2021/12/15 14:13:36;;;;;;;16.00;7.53;;;6.30;99.70;;;;;;4945857;29;20535;-62
2021/12/15 14:16:03;;;;;;;29.60;12.20;;;6.20;99.70;;;;;;4944358;29;20452;-61
2021/12/15 14:18:32;;;;;;;16.63;7.67;;;6.10;99.70;;;;;;4944791;29;20504;-65
2021/12/15 14:21:04;;;;;;;14.63;6.97;;;6.20;99.70;;;;;;4941916;29;21011;-64
2021/12/15 14:23:32;;;;;;;19.87;8.80;;;6.10;99.70;;;;;;4939221;29;20469;-60
2021/12/15 14:26:02;;;;;;;11.13;6.17;;;6.10;99.70;;;;;;4941945;29;20449;-63
2021/12/15 14:28:31;;;;;;;15.90;5.93;;;6.20;99.70;;;;;;4937000;29;21126;-64
2021/12/15 14:31:02;;;;;;;28.33;12.17;;;6.20;99.70;;;;;;4942176;28;20447;-58
2021/12/15 14:33:30;;;;;;;18.53;9.33;;;6.10;99.70;;;;;;4935004;29;20483;-64
2021/12/15 14:35:59;;;;;;;20.20;7.10;;;6.10;99.70;;;;;;4937881;29;20832;-60
2021/12/15 14:38:41;;;;;;;14.27;6.67;;;6.10;99.70;;;;;;4926050;29;20457;-61
2021/12/15 14:41:15;;;;;;;16.67;7.27;;;6.10;99.70;;;;;;4937096;29;20456;-61
2021/12/15 14:43:43;;;;;;;13.23;6.57;;;6.10;99.70;;;;;;4946955;29;20464;-60
2021/12/15 14:46:19;;;;;;;14.57;7.30;;;6.20;99.70;;;;;;4948608;29;20457;-60
2021/12/15 14:48:45;;;;;;;16.10;7.20;;;6.30;99.70;;;;;;4937358;29;20489;-64
2021/12/15 14:51:21;;;;;;;11.87;6.00;;;6.20;99.70;;;;;;4938077;29;20515;-60
2021/12/15 14:53:49;;;;;;;12.70;6.90;;;6.10;99.70;;;;;;4936419;28;20507;-58
2021/12/15 14:56:16;;;;;;;11.07;6.03;;;6.10;99.70;;;;;;4937596;29;20452;-60
2021/12/15 14:58:43;;;;;;;21.67;9.00;;;6.00;99.70;;;;;;4937142;29;20842;-59
2021/12/15 15:01:14;;;;;;;13.90;7.10;;;6.00;99.70;;;;;;4937965;29;21035;-60
2021/12/15 15:03:57;;;;;;;36.07;13.67;;;6.00;99.70;;;;;;4936682;28;20897;-62
2021/12/15 15:06:26;;;;;;;18.97;9.17;;;6.10;99.70;;;;;;4933226;29;20462;-63
2021/12/15 15:09:09;;;;;;;21.60;9.30;;;6.00;99.70;;;;;;4931671;29;20480;-64
2021/12/15 15:11:36;;;;;;;21.10;8.93;;;6.00;99.70;;;;;;4937767;29;20457;-64
2021/12/15 15:14:04;;;;;;;16.77;7.30;;;6.20;99.70;;;;;;4936405;28;20893;-61
2021/12/15 15:16:34;;;;;;;15.37;6.83;;;6.10;99.70;;;;;;4945500;29;20446;-61
2021/12/15 15:19:16;;;;;;;18.10;7.97;;;6.10;99.70;;;;;;4945921;29;20570;-64
2021/12/15 15:21:43;;;;;;;14.53;6.27;;;6.10;99.70;;;;;;4948924;29;20456;-65
2021/12/15 15:24:24;;;;;;;24.67;9.63;;;6.00;99.70;;;;;;4942534;29;20476;-60
2021/12/15 15:27:01;;;;;;;19.60;7.83;;;6.10;99.70;;;;;;4943198;29;20539;-63
2021/12/15 15:29:34;;;;;;;27.00;11.37;;;6.00;99.70;;;;;;4945323;29;20484;-64
2021/12/15 15:32:09;;;;;;;17.20;7.70;;;6.00;99.70;;;;;;4941462;29;20453;-62
2021/12/15 15:34:35;;;;;;;28.53;11.83;;;6.00;99.70;;;;;;4947412;29;21002;-65
2021/12/15 15:37:12;;;;;;;19.60;9.27;;;6.00;99.70;;;;;;4939358;29;20453;-65
2021/12/15 15:39:40;;;;;;;16.93;7.13;;;5.90;99.70;;;;;;4937874;29;20495;-63
2021/12/15 15:42:18;;;;;;;17.93;7.87;;;5.90;99.70;;;;;;4939259;29;20945;-63
2021/12/15 15:44:46;;;;;;;19.93;8.70;;;6.00;99.70;;;;;;4944222;29;20502;-60
2021/12/15 15:47:17;;;;;;;13.50;7.00;;;6.00;99.70;;;;;;4945606;29;20445;-62
2021/12/15 15:49:52;;;;;;;15.27;8.23;;;5.90;99.70;;;;;;4938979;29;20517;-62
2021/12/15 15:52:19;;;;;;;16.43;7.87;;;5.90;99.70;;;;;;4933570;29;21353;-63
2021/12/15 15:54:48;;;;;;;16.90;8.10;;;5.90;99.70;;;;;;4932539;29;20480;-63
2021/12/15 15:57:14;;;;;;;18.27;8.73;;;5.90;99.70;;;;;;4934302;29;20449;-65
2021/12/15 15:59:41;;;;;;;21.53;10.03;;;5.90;99.70;;;;;;4941106;29;20452;-65
2021/12/15 16:02:09;;;;;;;22.83;10.47;;;5.80;99.70;;;;;;4945600;29;20450;-62
2021/12/15 16:04:38;;;;;;;19.03;8.73;;;5.80;99.70;;;;;;4932842;29;20476;-64
2021/12/15 16:07:06;;;;;;;21.70;8.50;;;5.70;99.70;;;;;;4932797;29;20449;-61
2021/12/15 16:09:36;;;;;;;18.27;8.70;;;5.80;99.70;;;;;;4934776;29;20484;-60
2021/12/15 16:12:08;;;;;;;25.80;11.40;;;5.80;99.70;;;;;;4934636;29;20457;-61
2021/12/15 16:14:35;;;;;;;20.27;9.33;;;5.80;99.70;;;;;;4933976;29;20480;-61
2021/12/15 16:17:13;;;;;;;20.13;8.83;;;5.80;99.70;;;;;;4934995;29;20485;-59
2021/12/15 16:19:45;;;;;;;18.20;8.23;;;5.80;99.70;;;;;;4933737;29;21085;-60
2021/12/15 16:25:00;;;;;;;19.93;8.73;;;5.80;99.70;;;;;;4941197;29;20432;-60
2021/12/15 16:27:41;;;;;;;18.10;8.60;;;6.10;99.70;;;;;;4939000;29;20542;-61
2021/12/15 16:30:09;;;;;;;17.27;8.20;;;6.40;99.70;;;;;;4937364;29;20564;-63
2021/12/15 16:32:38;;;;;;;19.90;8.90;;;6.70;99.70;;;;;;4941999;28;20453;-62
2021/12/15 16:35:14;;;;;;;20.50;9.07;;;6.40;99.70;;;;;;4938838;29;20445;-59
2021/12/15 16:37:42;;;;;;;19.63;9.03;;;6.10;99.70;;;;;;4936054;29;20459;-63
2021/12/15 16:40:13;;;;;;;21.30;9.40;;;5.90;99.70;;;;;;4933840;29;20477;-62
2021/12/15 16:43:10;;;;;;;18.83;9.20;;;5.80;99.70;;;;;;4933220;29;20479;-64
2021/12/15 16:45:40;;;;;;;23.50;11.03;;;5.80;99.70;;;;;;4951088;23;20499;-61
2021/12/15 16:48:24;;;;;;;19.10;9.17;;;5.80;99.70;;;;;;4942253;29;20452;-62
2021/12/15 16:50:53;;;;;;;18.57;9.27;;;5.70;99.70;;;;;;4940208;29;20508;-60
2021/12/15 16:53:21;;;;;;;17.50;8.53;;;5.80;99.70;;;;;;4943131;29;20448;-61
2021/12/15 16:55:48;;;;;;;23.00;10.87;;;5.70;99.70;;;;;;4945607;29;20530;-62
2021/12/15 16:58:16;;;;;;;20.17;9.13;;;5.80;99.70;;;;;;4941639;29;20453;-62
2021/12/15 17:00:43;;;;;;;23.27;9.97;;;5.80;99.70;;;;;;4946282;29;20457;-63
2021/12/15 17:03:11;;;;;;;17.70;8.77;;;5.70;99.70;;;;;;4943247;29;20947;-61
2021/12/15 17:05:41;;;;;;;19.43;9.90;;;5.70;99.70;;;;;;4939640;29;20536;-61
2021/12/15 17:08:14;;;;;;;21.67;9.87;;;5.70;99.70;;;;;;4935227;29;20449;-61
2021/12/15 17:10:45;;;;;;;22.30;10.60;;;5.70;99.70;;;;;;4944323;29;20491;-62
2021/12/15 17:13:17;;;;;;;29.60;11.73;;;5.70;99.70;;;;;;4930494;29;20506;-63
2021/12/15 17:15:54;;;;;;;39.03;15.33;;;5.70;99.70;;;;;;4941002;29;20500;-63
2021/12/15 17:18:25;;;;;;;22.97;10.47;;;5.60;99.70;;;;;;4941939;29;20560;-62
2021/12/15 17:20:53;;;;;;;20.47;9.67;;;5.70;99.70;;;;;;4943282;29;20516;-63
2021/12/15 17:23:24;;;;;;;17.07;8.63;;;5.70;99.70;;;;;;4942684;29;20833;-63
2021/12/15 17:25:56;;;;;;;19.40;9.00;;;5.70;99.70;;;;;;4947828;29;20531;-61
2021/12/15 17:28:26;;;;;;;20.80;9.70;;;5.80;99.70;;;;;;4921345;29;20446;-62
2021/12/15 17:31:03;;;;;;;34.93;14.47;;;5.70;99.70;;;;;;4933518;29;20455;-63
2021/12/15 17:33:35;;;;;;;26.97;12.37;;;5.70;99.70;;;;;;4924056;29;20461;-63
2021/12/15 17:36:21;;;;;;;18.53;9.47;;;5.70;99.70;;;;;;4933280;29;20493;-62
2021/12/15 17:38:53;;;;;;;20.87;9.57;;;5.70;99.70;;;;;;4940387;29;20491;-62
2021/12/15 17:41:23;;;;;;;20.37;9.17;;;5.70;99.70;;;;;;4939996;29;20463;-60
2021/12/15 17:43:51;;;;;;;20.50;9.60;;;5.60;99.70;;;;;;4938623;29;20456;-60
2021/12/15 17:46:24;;;;;;;22.53;9.93;;;5.60;99.70;;;;;;4924945;29;20496;-60
2021/12/15 17:49:01;;;;;;;20.53;9.20;;;5.50;99.70;;;;;;4923993;29;20977;-61
2021/12/15 17:51:40;;;;;;;20.93;9.40;;;5.60;99.70;;;;;;4931839;29;20482;-60
2021/12/15 17:54:08;;;;;;;21.10;9.67;;;5.50;99.70;;;;;;4928173;29;20483;-62
2021/12/15 17:56:35;;;;;;;20.50;9.20;;;5.50;99.70;;;;;;4928700;29;20488;-62
2021/12/15 17:59:01;;;;;;;19.10;8.53;;;5.60;99.70;;;;;;4944851;29;20444;-63
2021/12/15 18:01:30;;;;;;;20.97;10.03;;;5.50;99.70;;;;;;4940367;29;20510;-64
2021/12/15 18:03:57;;;;;;;23.03;9.77;;;5.50;99.70;;;;;;4922562;29;20877;-64
2021/12/15 18:06:23;;;;;;;22.07;10.30;;;5.50;99.70;;;;;;4927309;29;20466;-60
2021/12/15 18:08:50;;;;;;;22.47;9.60;;;5.50;99.70;;;;;;4929456;29;20811;-60
2021/12/15 18:11:18;;;;;;;21.57;9.80;;;5.50;99.70;;;;;;4953287;29;20482;-62
2021/12/15 18:13:48;;;;;;;24.23;10.80;;;5.40;99.70;;;;;;4931794;29;20448;-63
2021/12/15 18:16:15;;;;;;;20.23;9.77;;;5.50;99.70;;;;;;4930819;29;20583;-61
2021/12/15 18:18:44;;;;;;;23.43;10.23;;;5.50;99.70;;;;;;4943283;29;20479;-63
2021/12/15 18:21:15;;;;;;;27.60;11.13;;;5.50;99.70;;;;;;4938586;29;20867;-62
2021/12/15 18:23:43;;;;;;;29.13;12.27;;;5.50;99.70;;;;;;4930230;29;20453;-60
2021/12/15 18:26:16;;;;;;;27.87;12.23;;;5.50;99.70;;;;;;4937692;29;20468;-62
2021/12/15 18:28:43;;;;;;;25.50;10.70;;;5.40;99.70;;;;;;4932741;29;20544;-62
2021/12/15 18:31:10;;;;;;;24.10;10.20;;;5.30;99.70;;;;;;4946123;29;20879;-62
2021/12/15 18:33:37;;;;;;;21.93;9.40;;;5.30;99.70;;;;;;4937947;29;20485;-62
2021/12/15 18:36:10;;;;;;;21.87;9.90;;;5.50;99.70;;;;;;4933854;29;20575;-64
2021/12/15 18:38:38;;;;;;;23.10;10.60;;;5.50;99.70;;;;;;4924681;29;20507;-62
2021/12/15 18:41:07;;;;;;;21.87;9.37;;;5.50;99.70;;;;;;4935188;29;20888;-64
2021/12/15 18:43:38;;;;;;;23.00;10.10;;;5.40;99.70;;;;;;4936977;29;20453;-63
2021/12/15 18:46:05;;;;;;;22.57;10.10;;;5.40;99.70;;;;;;4937535;29;20912;-64